Terminal Aerodrome Forecast
Issued by NWS Albany, NY

Current Version | Previous Version | Text Only | Print | Product List | Glossary On
Versions: 1 2 3 4 5 6 7 8 9 10 11 12 13 14 15 16 17 18 19
527 FTUS41 KALY 041720 TAFALB TAF KALB 041720Z 0418/0518 34008KT P6SM BKN035 FM042300 VRB03KT P6SM SCT035 SCT250 FM050300 VRB03KT P6SM SCT120 BKN250 FM050700 15005KT P6SM VCSH OVC050 FM050900 17006KT 2SM -SN BR OVC015 FM051600 20008KT 4SM -SNRA BR OVC025=

USA.gov is the U.S. government's official web portal to all federal, state and local government web resources and services.